createdAt,value
2023-04-15T00:02:02.871Z,6.15
2023-04-15T00:04:34.147Z,7.50
2023-04-15T00:07:05.085Z,6.82
2023-04-15T00:09:35.765Z,5.05
2023-04-15T00:12:09.390Z,3.53
2023-04-15T00:14:40.102Z,6.47
2023-04-15T00:17:11.032Z,5.97
2023-04-15T00:19:42.154Z,4.10
2023-04-15T00:22:13.077Z,6.35
2023-04-15T00:24:44.236Z,7.13
2023-04-15T00:27:17.680Z,4.18
2023-04-15T00:29:48.605Z,5.82
2023-04-15T00:32:19.390Z,6.13
2023-04-15T00:34:50.187Z,7.53
2023-04-15T00:37:21.072Z,4.00
2023-04-15T00:39:52.435Z,5.35
2023-04-15T00:42:26.067Z,3.95
2023-04-15T00:44:57.611Z,6.50
2023-04-15T00:47:29.683Z,4.85
2023-04-15T00:50:00.492Z,5.60
2023-04-15T00:52:31.469Z,7.07
2023-04-15T00:55:02.705Z,5.72
2023-04-15T00:57:37.068Z,7.60
2023-04-15T01:00:09.960Z,6.45
2023-04-15T01:02:41.393Z,5.65
2023-04-15T01:05:12.674Z,6.93
2023-04-15T01:07:43.912Z,7.38
2023-04-15T01:10:15.101Z,6.15
2023-04-15T01:12:49.492Z,6.15
2023-04-15T01:15:20.760Z,6.38
2023-04-15T01:17:52.110Z,5.80
2023-04-15T01:20:23.761Z,7.25
2023-04-15T01:22:54.722Z,4.20
2023-04-15T01:25:35.059Z,4.80
2023-04-15T01:28:06.369Z,7.30
2023-04-15T01:30:38.420Z,5.68
2023-04-15T01:33:09.217Z,7.40
2023-04-15T01:35:58.063Z,4.85
2023-04-15T01:38:31.018Z,5.15
2023-04-15T01:41:04.643Z,4.82
2023-04-15T01:43:35.522Z,5.82
2023-04-15T01:46:06.531Z,7.57
2023-04-15T01:48:37.683Z,7.47
2023-04-15T01:51:08.547Z,6.18
2023-04-15T01:53:39.538Z,4.57
2023-04-15T01:56:14.707Z,6.53
2023-04-15T01:58:47.898Z,7.07
2023-04-15T02:01:20.116Z,9.43
2023-04-15T02:03:51.176Z,6.65
2023-04-15T02:06:21.863Z,6.90
2023-04-15T02:08:52.625Z,6.57
2023-04-15T02:11:26.241Z,9.52
2023-04-15T02:13:57.415Z,7.35
2023-04-15T02:16:29.605Z,9.35
2023-04-15T02:19:00.589Z,7.88
2023-04-15T02:21:31.366Z,7.72
2023-04-15T02:24:02.691Z,7.65
2023-04-15T02:26:35.983Z,7.25
2023-04-15T02:29:07.153Z,6.47
2023-04-15T02:31:40.801Z,8.55
2023-04-15T02:34:11.544Z,9.02
2023-04-15T02:36:42.272Z,8.30
2023-04-15T02:39:15.154Z,10.63
2023-04-15T02:41:52.265Z,9.48
2023-04-15T02:44:25.278Z,7.80
2023-04-15T02:47:00.926Z,8.25
2023-04-15T02:49:32.007Z,11.43
2023-04-15T02:52:02.601Z,9.73
2023-04-15T02:54:34.702Z,7.57
2023-04-15T02:57:08.551Z,10.73
2023-04-15T02:59:39.782Z,9.43
2023-04-15T03:02:10.915Z,8.10
2023-04-15T03:04:41.763Z,5.75
2023-04-15T03:07:12.366Z,7.35
2023-04-15T03:09:43.554Z,5.25
2023-04-15T03:12:19.750Z,7.10
2023-04-15T03:14:50.849Z,11.57
2023-04-15T03:17:21.588Z,6.95
2023-04-15T03:19:53.355Z,6.55
2023-04-15T03:22:23.856Z,10.23
2023-04-15T03:24:56.481Z,6.85
2023-04-15T03:27:29.765Z,11.73
2023-04-15T03:30:04.274Z,10.75
2023-04-15T03:32:37.086Z,7.30
2023-04-15T03:35:10.585Z,7.53
2023-04-15T03:37:41.370Z,15.82
2023-04-15T03:40:13.090Z,11.20
2023-04-15T03:42:46.382Z,8.43
2023-04-15T03:45:17.101Z,8.35
2023-04-15T03:47:47.878Z,11.60
2023-04-15T03:50:18.770Z,5.90
2023-04-15T03:52:50.739Z,7.43
2023-04-15T03:55:22.075Z,4.43
2023-04-15T03:57:55.332Z,7.68
2023-04-15T04:00:26.161Z,5.65
2023-04-15T04:02:57.402Z,5.68
2023-04-15T04:05:28.149Z,10.45
2023-04-15T04:07:58.769Z,9.02
2023-04-15T04:10:30.518Z,11.63
2023-04-15T04:13:03.817Z,9.68
2023-04-15T04:15:34.464Z,9.35
2023-04-15T04:18:05.150Z,6.68
2023-04-15T04:20:35.994Z,8.55
2023-04-15T04:23:06.865Z,5.88
2023-04-15T04:25:38.002Z,9.55
2023-04-15T04:28:12.019Z,8.50
2023-04-15T04:30:42.906Z,5.43
2023-04-15T04:33:13.647Z,10.70
2023-04-15T04:35:44.331Z,9.25
2023-04-15T04:38:14.984Z,9.35
2023-04-15T04:40:45.766Z,8.18
2023-04-15T04:43:19.092Z,8.15
2023-04-15T04:45:49.810Z,9.60
2023-04-15T04:48:20.371Z,6.88
2023-04-15T04:50:51.390Z,8.85
2023-04-15T04:53:22.140Z,7.05
2023-04-15T04:55:53.092Z,8.98
2023-04-15T04:58:26.746Z,10.82
2023-04-15T05:00:57.633Z,11.95
2023-04-15T05:03:28.356Z,6.85
2023-04-15T05:05:59.602Z,7.78
2023-04-15T05:08:30.167Z,8.00
2023-04-15T05:11:00.903Z,9.88
2023-04-15T05:13:34.036Z,6.85
2023-04-15T05:16:04.649Z,7.32
2023-04-15T05:18:35.381Z,11.50
2023-04-15T05:21:06.342Z,10.43
2023-04-15T05:23:37.952Z,9.70
2023-04-15T05:26:08.809Z,9.55
2023-04-15T05:28:42.031Z,8.05
2023-04-15T05:31:12.662Z,9.43
2023-04-15T05:33:43.661Z,8.77
2023-04-15T05:36:14.433Z,7.38
2023-04-15T05:38:45.009Z,11.50
2023-04-15T05:41:18.390Z,5.85
2023-04-15T05:43:53.017Z,7.38
2023-04-15T05:46:23.794Z,9.57
2023-04-15T05:48:56.378Z,7.43
2023-04-15T05:51:27.597Z,10.90
2023-04-15T05:53:58.213Z,8.38
2023-04-15T05:56:29.625Z,7.72
2023-04-15T05:59:02.950Z,7.88
2023-04-15T06:01:33.806Z,8.75
2023-04-15T06:04:04.647Z,7.40
2023-04-15T06:06:35.660Z,8.70
2023-04-15T06:09:06.588Z,5.80
2023-04-15T06:11:37.322Z,7.97
2023-04-15T06:14:10.510Z,7.68
2023-04-15T06:16:41.370Z,6.80
2023-04-15T06:19:12.696Z,5.60
2023-04-15T06:21:43.665Z,3.20
2023-04-15T06:24:14.961Z,3.97
2023-04-15T06:26:45.594Z,5.20
2023-04-15T06:29:18.840Z,6.28
2023-04-15T06:31:50.973Z,7.28
2023-04-15T06:34:21.967Z,5.70
2023-04-15T06:36:52.678Z,5.25
2023-04-15T06:39:23.330Z,7.57
2023-04-15T06:41:54.170Z,3.90
2023-04-15T06:44:28.303Z,6.57
2023-04-15T06:46:58.905Z,6.32
2023-04-15T06:49:29.573Z,4.75
2023-04-15T06:52:00.959Z,5.93
2023-04-15T06:54:31.624Z,3.13
2023-04-15T06:57:02.605Z,4.45
2023-04-15T06:59:35.842Z,4.35
2023-04-15T07:02:06.610Z,3.63
2023-04-15T07:04:37.372Z,5.10
2023-04-15T07:07:08.462Z,3.97
2023-04-15T07:09:39.143Z,4.13
2023-04-15T07:12:09.893Z,10.13
2023-04-15T07:14:43.114Z,6.05
2023-04-15T07:17:13.926Z,9.05
2023-04-15T07:19:44.616Z,3.25
2023-04-15T07:22:15.286Z,5.18
2023-04-15T07:24:45.884Z,6.43
2023-04-15T07:27:16.766Z,9.63
2023-04-15T07:29:51.811Z,5.30
2023-04-15T07:32:22.885Z,5.38
2023-04-15T07:34:53.885Z,3.55
2023-04-15T07:37:24.587Z,6.15
2023-04-15T07:39:55.707Z,3.60
2023-04-15T07:42:26.471Z,7.68
2023-04-15T07:45:00.377Z,6.70
2023-04-15T07:47:31.231Z,3.50
2023-04-15T07:50:02.559Z,3.97
2023-04-15T07:52:39.363Z,5.22
2023-04-15T07:55:11.779Z,5.07
2023-04-15T07:57:42.490Z,6.78
2023-04-15T08:00:17.700Z,3.47
2023-04-15T08:02:48.708Z,4.63
2023-04-15T08:05:20.039Z,6.55
2023-04-15T08:07:50.972Z,4.30
2023-04-15T08:10:24.612Z,6.68
2023-04-15T08:12:55.371Z,6.53
2023-04-15T08:15:29.766Z,4.10
2023-04-15T08:18:01.049Z,11.23
2023-04-15T08:20:31.823Z,5.72
2023-04-15T08:23:02.580Z,5.32
2023-04-15T08:25:33.730Z,5.05
2023-04-15T08:28:07.796Z,5.18
2023-04-15T08:30:41.070Z,5.50
2023-04-15T08:33:11.831Z,4.20
2023-04-15T08:35:42.443Z,5.70
2023-04-15T08:38:13.277Z,5.72
2023-04-15T08:40:45.872Z,4.18
2023-04-15T08:43:22.251Z,10.10
2023-04-15T08:46:00.569Z,3.80
2023-04-15T08:48:32.954Z,4.07
2023-04-15T08:51:04.622Z,3.85
2023-04-15T08:53:35.867Z,5.18
2023-04-15T08:56:10.853Z,6.35
2023-04-15T08:58:41.978Z,3.33
2023-04-15T09:01:16.273Z,6.57
2023-04-15T09:03:47.699Z,4.97
2023-04-15T09:06:20.235Z,4.53
2023-04-15T09:08:51.190Z,7.15
2023-04-15T09:11:22.277Z,4.82
2023-04-15T09:13:53.122Z,5.45
2023-04-15T09:16:26.427Z,4.40
2023-04-15T09:18:57.190Z,7.65
2023-04-15T09:21:29.883Z,12.27
2023-04-15T09:24:02.895Z,8.50
2023-04-15T09:26:35.742Z,5.45
2023-04-15T09:29:09.822Z,5.53
2023-04-15T09:31:43.868Z,5.20
2023-04-15T09:34:14.787Z,5.68
2023-04-15T09:37:00.183Z,4.82
2023-04-15T09:39:30.764Z,5.85
2023-04-15T09:42:10.161Z,4.22
2023-04-15T09:44:41.160Z,6.10
2023-04-15T09:47:31.830Z,6.35
2023-04-15T09:50:03.907Z,5.03
2023-04-15T09:52:34.665Z,5.70
2023-04-15T09:55:05.380Z,6.38
2023-04-15T09:57:41.486Z,6.93
2023-04-15T10:00:13.398Z,7.90
2023-04-15T10:02:47.473Z,5.75
2023-04-15T10:05:19.640Z,5.50
2023-04-15T10:07:50.863Z,5.82
2023-04-15T10:10:21.886Z,5.03
2023-04-15T10:12:54.560Z,3.75
2023-04-15T10:15:26.761Z,3.90
2023-04-15T10:18:00.913Z,7.57
2023-04-15T10:20:35.552Z,4.50
2023-04-15T10:23:08.134Z,4.03
2023-04-15T10:25:40.681Z,5.57
2023-04-15T10:28:11.743Z,2.80
2023-04-15T10:30:42.615Z,5.13
2023-04-15T10:33:17.465Z,5.22
2023-04-15T10:35:49.317Z,4.75
2023-04-15T10:38:44.826Z,3.17
2023-04-15T10:41:21.263Z,2.95
2023-04-15T10:43:54.459Z,4.13
2023-04-15T10:46:26.940Z,5.80
2023-04-15T10:49:01.349Z,3.47
2023-04-15T10:51:33.885Z,5.63
2023-04-15T10:54:04.635Z,3.65
2023-04-15T10:56:35.871Z,3.92
2023-04-15T10:59:08.849Z,5.75
2023-04-15T11:02:04.857Z,3.53
2023-04-15T11:05:01.182Z,3.30
2023-04-15T11:07:42.640Z,3.95
2023-04-15T11:11:00.499Z,5.80
2023-04-15T11:13:33.466Z,4.28
2023-04-15T11:16:05.573Z,3.55
2023-04-15T11:18:38.325Z,2.85
2023-04-15T11:21:12.535Z,4.88
2023-04-15T11:23:47.133Z,3.58
2023-04-15T11:26:18.000Z,4.68
2023-04-15T11:28:49.731Z,9.18
2023-04-15T11:31:23.596Z,5.55
2023-04-15T11:33:59.589Z,5.50
2023-04-15T11:36:34.351Z,6.35
2023-04-15T11:39:05.252Z,4.72
2023-04-15T11:41:36.029Z,4.05
2023-04-15T11:44:06.942Z,4.57
2023-04-15T11:46:37.604Z,7.82
2023-04-15T11:49:08.274Z,6.10
2023-04-15T11:51:41.759Z,5.25
2023-04-15T11:54:12.563Z,6.10
2023-04-15T11:56:43.512Z,6.45
2023-04-15T11:59:14.220Z,5.40
2023-04-15T12:01:47.090Z,4.95
2023-04-15T12:04:25.220Z,6.38
2023-04-15T12:07:08.146Z,6.15
2023-04-15T12:09:41.620Z,5.03
2023-04-15T12:12:12.888Z,5.93
2023-04-15T12:14:43.686Z,4.38
2023-04-15T12:17:14.686Z,6.90
2023-04-15T12:19:46.085Z,5.43
2023-04-15T12:22:20.975Z,4.57
2023-04-15T12:24:58.676Z,8.57
2023-04-15T12:27:30.045Z,6.35
2023-04-15T12:30:09.274Z,4.82
2023-04-15T12:32:42.184Z,3.30
2023-04-15T12:35:14.684Z,7.57
2023-04-15T12:37:48.116Z,4.82
2023-04-15T12:40:18.907Z,5.95
2023-04-15T12:42:50.664Z,4.65
2023-04-15T12:45:21.797Z,3.67
2023-04-15T12:47:52.736Z,4.32
2023-04-15T12:50:23.546Z,5.40
2023-04-15T12:52:57.026Z,4.95
2023-04-15T12:55:28.075Z,3.40
2023-04-15T12:57:58.842Z,3.67
2023-04-15T13:00:29.572Z,4.55
2023-04-15T13:03:00.427Z,4.03
2023-04-15T13:05:31.393Z,6.15
2023-04-15T13:08:04.829Z,3.35
2023-04-15T13:10:36.849Z,3.85
2023-04-15T13:13:08.286Z,4.18
2023-04-15T13:15:39.031Z,3.70
2023-04-15T13:18:10.790Z,4.65
2023-04-15T13:20:41.783Z,7.00
2023-04-15T13:23:15.340Z,5.50
2023-04-15T13:25:46.481Z,5.03
2023-04-15T13:28:17.235Z,5.50
2023-04-15T13:30:49.231Z,6.93
2023-04-15T13:33:20.527Z,4.50
2023-04-15T13:35:51.176Z,6.10
2023-04-15T13:38:24.633Z,3.92
2023-04-15T13:40:55.394Z,3.75
2023-04-15T13:43:26.784Z,4.97
2023-04-15T13:45:57.662Z,4.28
2023-04-15T13:48:28.843Z,4.75
2023-04-15T13:50:59.579Z,5.55
2023-04-15T13:53:38.493Z,4.63
2023-04-15T13:56:11.028Z,4.55
2023-04-15T13:58:42.209Z,4.43
2023-04-15T14:01:13.185Z,6.97
2023-04-15T14:03:44.140Z,5.15
2023-04-15T14:06:14.853Z,6.22
2023-04-15T14:08:48.417Z,4.85
2023-04-15T14:11:19.104Z,4.22
2023-04-15T14:13:50.033Z,4.97
2023-04-15T14:16:20.805Z,4.22
2023-04-15T14:18:51.704Z,7.13
2023-04-15T14:21:22.461Z,4.28
2023-04-15T14:23:55.933Z,6.70
2023-04-15T14:26:26.740Z,4.00
2023-04-15T14:28:57.708Z,3.90
2023-04-15T14:31:28.571Z,7.68
2023-04-15T14:33:59.489Z,5.75
2023-04-15T14:36:30.555Z,7.63
2023-04-15T14:39:04.509Z,5.40
2023-04-15T14:41:35.529Z,4.85
2023-04-15T14:44:06.323Z,5.93
2023-04-15T14:46:37.028Z,3.65
2023-04-15T14:49:08.826Z,6.80
2023-04-15T14:51:41.672Z,5.75
2023-04-15T14:54:15.379Z,5.28
2023-04-15T14:56:46.105Z,5.05
2023-04-15T14:59:16.788Z,7.82
2023-04-15T15:01:47.593Z,3.17
2023-04-15T15:04:18.703Z,7.20
2023-04-15T15:06:50.556Z,6.05
2023-04-15T15:09:24.189Z,3.25
2023-04-15T15:11:54.914Z,3.88
2023-04-15T15:14:25.658Z,4.95
2023-04-15T15:16:56.382Z,8.48
2023-04-15T15:19:27.299Z,3.55
2023-04-15T15:21:58.090Z,6.65
2023-04-15T15:24:31.691Z,4.03
2023-04-15T15:27:02.606Z,7.32
2023-04-15T15:29:33.474Z,7.07
2023-04-15T15:32:04.136Z,7.55
2023-04-15T15:34:34.847Z,8.07
2023-04-15T15:37:05.584Z,8.57
2023-04-15T15:39:39.211Z,7.28
2023-04-15T15:42:10.018Z,10.70
2023-04-15T15:44:41.092Z,8.90
2023-04-15T15:47:11.952Z,8.20
2023-04-15T15:49:43.377Z,7.63
2023-04-15T15:52:16.574Z,7.45
2023-04-15T15:54:50.190Z,10.15
2023-04-15T15:57:21.227Z,8.05
2023-04-15T16:00:04.941Z,9.15
2023-04-15T16:05:17.022Z,9.27
2023-04-15T16:07:47.739Z,8.68
2023-04-15T16:10:21.298Z,7.55
2023-04-15T16:12:51.983Z,7.72
2023-04-15T16:15:23.041Z,9.60
2023-04-15T16:17:54.057Z,9.90
2023-04-15T16:20:25.112Z,9.02
2023-04-15T16:22:55.851Z,7.65
2023-04-15T16:25:29.357Z,6.85
2023-04-15T16:28:08.569Z,9.65
2023-04-15T16:33:15.977Z,10.02
2023-04-15T16:35:46.828Z,10.75
2023-04-15T16:38:17.532Z,10.45
2023-04-15T16:40:51.824Z,10.90
2023-04-15T16:43:22.657Z,9.30
2023-04-15T16:45:53.475Z,12.98
2023-04-15T16:48:24.696Z,12.27
2023-04-15T16:50:55.778Z,9.18
2023-04-15T16:53:26.682Z,9.48
2023-04-15T16:56:00.096Z,9.20
2023-04-15T16:58:30.918Z,15.82
2023-04-15T17:01:02.219Z,12.40
2023-04-15T17:03:34.468Z,16.92
2023-04-15T17:06:05.460Z,14.35
2023-04-15T17:08:36.246Z,25.00
2023-04-15T17:11:09.830Z,15.02
2023-04-15T17:13:40.869Z,18.95
2023-04-15T17:16:12.812Z,14.23
2023-04-15T17:18:47.814Z,13.68
2023-04-15T17:21:29.627Z,16.17
2023-04-15T17:24:05.376Z,16.38
2023-04-15T17:26:47.531Z,13.57
2023-04-15T17:29:20.917Z,25.52
2023-04-15T17:31:56.199Z,15.93
2023-04-15T17:34:50.546Z,22.08
2023-04-15T17:37:41.779Z,21.17
2023-04-15T17:40:32.528Z,16.25
2023-04-15T17:43:25.677Z,19.15
2023-04-15T17:46:16.688Z,18.42
2023-04-15T17:49:07.425Z,20.27
2023-04-15T17:51:58.110Z,20.60
2023-04-15T17:54:50.026Z,17.60
2023-04-15T17:57:41.194Z,14.25
2023-04-15T18:00:34.415Z,16.23
2023-04-15T18:03:25.135Z,23.98
2023-04-15T18:06:17.236Z,20.60
2023-04-15T18:09:09.021Z,24.75
2023-04-15T18:11:59.633Z,20.45
2023-04-15T18:14:50.414Z,22.50
2023-04-15T18:17:43.565Z,20.30
2023-04-15T18:20:19.507Z,18.75
2023-04-15T18:22:52.239Z,23.48
2023-04-15T18:25:23.664Z,22.80
2023-04-15T18:27:54.525Z,19.60
2023-04-15T18:30:25.445Z,21.73
2023-04-15T18:32:59.000Z,18.65
2023-04-15T18:35:30.237Z,17.30
2023-04-15T18:38:01.627Z,13.80
2023-04-15T18:40:35.483Z,14.50
2023-04-15T18:43:06.997Z,15.95
2023-04-15T18:45:38.130Z,16.23
2023-04-15T18:48:11.889Z,18.33
2023-04-15T18:50:42.835Z,15.15
2023-04-15T18:53:13.734Z,16.08
2023-04-15T18:55:44.502Z,14.98
2023-04-15T18:58:15.999Z,14.88
2023-04-15T19:00:46.826Z,15.85
2023-04-15T19:03:20.553Z,16.33
2023-04-15T19:05:51.276Z,15.18
2023-04-15T19:08:22.221Z,17.92
2023-04-15T19:10:53.058Z,19.50
2023-04-15T19:13:24.571Z,20.17
2023-04-15T19:15:55.631Z,17.17
2023-04-15T19:18:29.760Z,21.15
2023-04-15T19:21:00.677Z,17.15
2023-04-15T19:23:32.023Z,19.85
2023-04-15T19:26:02.828Z,21.92
2023-04-15T19:28:33.680Z,24.00
2023-04-15T19:31:04.712Z,18.60
2023-04-15T19:33:38.418Z,18.60
2023-04-15T19:36:10.743Z,19.92
2023-04-15T19:38:41.777Z,20.27
2023-04-15T19:41:13.507Z,19.30
2023-04-15T19:43:44.471Z,21.50
2023-04-15T19:46:15.770Z,19.15
2023-04-15T19:48:49.424Z,20.75
2023-04-15T19:51:21.803Z,20.33
2023-04-15T19:53:54.459Z,21.35
2023-04-15T19:56:26.988Z,19.90
2023-04-15T19:59:00.165Z,22.52
2023-04-15T20:01:31.290Z,23.67
2023-04-15T20:04:05.079Z,20.55
2023-04-15T20:06:36.219Z,15.48
2023-04-15T20:09:08.997Z,14.95
2023-04-15T20:12:45.969Z,20.33
2023-04-15T20:14:32.794Z,16.08
2023-04-15T20:17:03.600Z,13.90
2023-04-15T20:19:36.966Z,15.40
2023-04-15T20:22:07.803Z,20.35
2023-04-15T20:24:38.589Z,20.08
2023-04-15T20:27:09.398Z,18.73
2023-04-15T20:29:40.370Z,18.15
2023-04-15T20:32:11.902Z,12.07
2023-04-15T20:34:45.235Z,14.82
2023-04-15T20:37:16.492Z,19.17
2023-04-15T20:39:47.787Z,21.52
2023-04-15T20:42:18.547Z,16.67
2023-04-15T20:44:49.538Z,17.00
2023-04-15T20:47:20.427Z,19.10
2023-04-15T20:49:54.321Z,14.52
2023-04-15T20:52:25.179Z,20.77
2023-04-15T20:54:56.263Z,15.32
2023-04-15T20:57:29.075Z,16.33
2023-04-15T21:00:00.019Z,14.38
2023-04-15T21:02:31.068Z,15.38
2023-04-15T21:05:05.063Z,17.50
2023-04-15T21:07:36.413Z,17.45
2023-04-15T21:10:07.589Z,17.13
2023-04-15T21:12:41.653Z,16.30
2023-04-15T21:15:13.485Z,12.25
2023-04-15T21:17:44.451Z,16.65
2023-04-15T21:20:18.492Z,15.98
2023-04-15T21:22:49.416Z,14.85
2023-04-15T21:25:20.551Z,13.52
2023-04-15T21:27:51.509Z,16.83
2023-04-15T21:30:24.132Z,15.15
2023-04-15T21:32:56.073Z,10.25
2023-04-15T21:35:30.792Z,12.60
2023-04-15T21:38:01.756Z,19.83
2023-04-15T21:40:32.960Z,13.73
2023-04-15T21:43:03.689Z,15.35
2023-04-15T21:45:34.533Z,18.58
2023-04-15T21:48:07.608Z,13.25
2023-04-15T21:50:42.457Z,12.73
2023-04-15T21:53:13.225Z,12.25
2023-04-15T21:55:43.977Z,15.68
2023-04-15T21:58:14.656Z,13.52
2023-04-15T22:00:45.269Z,11.88
2023-04-15T22:03:16.351Z,13.40
2023-04-15T22:05:50.297Z,10.77
2023-04-15T22:08:21.132Z,9.85
2023-04-15T22:10:51.994Z,11.77
2023-04-15T22:13:22.635Z,13.73
2023-04-15T22:15:53.514Z,12.13
2023-04-15T22:18:24.451Z,14.90
2023-04-15T22:20:57.972Z,10.90
2023-04-15T22:23:28.709Z,15.70
2023-04-15T22:25:59.479Z,15.48
2023-04-15T22:28:30.367Z,14.65
2023-04-15T22:31:01.377Z,15.23
2023-04-15T22:33:32.089Z,10.55
2023-04-15T22:36:05.801Z,12.13
2023-04-15T22:38:36.772Z,9.85
2023-04-15T22:41:07.569Z,14.55
2023-04-15T22:43:38.319Z,20.27
2023-04-15T22:46:09.273Z,10.25
2023-04-15T22:48:40.431Z,13.20
2023-04-15T22:51:13.815Z,20.85
2023-04-15T22:53:45.024Z,17.10
2023-04-15T22:56:17.578Z,10.45
2023-04-15T22:58:48.541Z,10.02
2023-04-15T23:01:21.115Z,11.25
2023-04-15T23:03:56.983Z,12.82
2023-04-15T23:06:40.416Z,15.02
2023-04-15T23:09:11.633Z,11.55
2023-04-15T23:11:42.686Z,14.02
2023-04-15T23:14:13.975Z,15.25
2023-04-15T23:16:45.855Z,9.02
2023-04-15T23:19:17.219Z,13.90
2023-04-15T23:21:50.878Z,11.88
2023-04-15T23:24:21.732Z,11.90
2023-04-15T23:26:53.386Z,16.60
2023-04-15T23:29:24.249Z,10.88
2023-04-15T23:31:55.118Z,12.52
2023-04-15T23:34:26.021Z,9.88
2023-04-15T23:36:59.605Z,14.43
2023-04-15T23:39:30.526Z,9.48
2023-04-15T23:42:01.641Z,10.30
2023-04-15T23:44:32.593Z,9.75
2023-04-15T23:47:03.521Z,10.68
2023-04-15T23:49:34.397Z,10.35
2023-04-15T23:52:08.047Z,8.82
2023-04-15T23:54:38.795Z,10.07
2023-04-15T23:57:09.705Z,8.10
2023-04-15T23:59:40.878Z,8.32
